createdAt,value
2018-11-26T00:00:33.530Z,89.85
2018-11-26T00:03:01.203Z,90.42
2018-11-26T00:05:28.991Z,90.18
2018-11-26T00:07:56.720Z,89.90
2018-11-26T00:11:35.561Z,89.64
2018-11-26T00:14:03.589Z,89.56
2018-11-26T00:16:31.281Z,89.49
2018-11-26T00:18:58.974Z,89.65
2018-11-26T00:21:26.682Z,89.69
2018-11-26T00:23:54.429Z,89.03
2018-11-26T00:26:22.122Z,88.99
2018-11-26T00:28:49.946Z,88.99
2018-11-26T00:31:17.714Z,89.04
2018-11-26T00:33:45.426Z,89.18
2018-11-26T00:36:13.146Z,88.83
2018-11-26T00:38:40.914Z,88.79
2018-11-26T00:41:08.598Z,88.90
2018-11-26T00:43:36.293Z,88.50
2018-11-26T00:46:04.227Z,88.57
2018-11-26T00:48:31.930Z,88.41
2018-11-26T00:50:59.638Z,88.90
2018-11-26T00:53:27.297Z,88.86
2018-11-26T00:55:55.046Z,88.64
2018-11-26T00:58:22.774Z,88.22
2018-11-26T01:00:50.513Z,88.53
2018-11-26T01:03:18.214Z,88.13
2018-11-26T01:05:45.924Z,88.47
2018-11-26T01:08:13.641Z,88.47
2018-11-26T01:10:41.369Z,88.52
2018-11-26T01:13:09.018Z,88.01
2018-11-26T01:15:36.793Z,88.30
2018-11-26T01:18:08.714Z,88.34
2018-11-26T01:20:46.389Z,87.97
2018-11-26T01:23:19.685Z,87.90
2018-11-26T01:25:47.546Z,87.47
2018-11-26T01:28:15.213Z,87.48
2018-11-26T01:30:42.906Z,87.47
2018-11-26T01:33:10.640Z,87.79
2018-11-26T01:35:38.430Z,87.51
2018-11-26T01:38:06.166Z,87.51
2018-11-26T01:40:39.540Z,87.32
2018-11-26T01:43:07.370Z,87.24
2018-11-26T01:45:35.112Z,86.89
2018-11-26T01:48:02.852Z,87.08
2018-11-26T01:50:30.594Z,86.65
2018-11-26T01:52:58.302Z,86.83
2018-11-26T01:55:26.044Z,86.50
2018-11-26T01:57:53.846Z,86.37
2018-11-26T02:00:24.011Z,86.19
2018-11-26T02:02:51.433Z,86.04
2018-11-26T02:05:19.089Z,86.17
2018-11-26T02:07:46.851Z,86.52
2018-11-26T02:10:16.052Z,85.94
2018-11-26T02:12:50.485Z,85.59
2018-11-26T02:15:32.959Z,85.83
2018-11-26T02:18:00.625Z,85.42
2018-11-26T02:20:28.421Z,85.92
2018-11-26T02:22:56.078Z,85.50
2018-11-26T02:25:23.811Z,86.13
2018-11-26T02:27:51.590Z,85.92
2018-11-26T02:30:19.231Z,85.84
2018-11-26T02:32:46.910Z,85.97
2018-11-26T02:35:14.614Z,85.43
2018-11-26T02:37:44.426Z,85.79
2018-11-26T02:40:19.696Z,85.30
2018-11-26T02:42:47.491Z,85.10
2018-11-26T02:45:15.246Z,85.31
2018-11-26T02:47:42.917Z,85.13
2018-11-26T02:50:10.640Z,85.03
2018-11-26T02:52:38.394Z,84.99
2018-11-26T02:55:06.219Z,84.25
2018-11-26T02:57:33.861Z,84.33
2018-11-26T03:00:01.627Z,84.61
2018-11-26T03:02:29.337Z,84.88
2018-11-26T03:04:57.073Z,84.21
2018-11-26T03:07:28.217Z,84.46
2018-11-26T03:09:55.977Z,85.01
2018-11-26T03:12:23.714Z,84.76
2018-11-26T03:14:51.418Z,84.54
2018-11-26T03:17:19.142Z,84.72
2018-11-26T03:19:46.869Z,84.50
2018-11-26T03:22:14.603Z,84.25
2018-11-26T03:24:42.320Z,84.60
2018-11-26T03:27:09.994Z,84.80
2018-11-26T03:29:37.763Z,84.98
2018-11-26T03:32:05.526Z,84.44
2018-11-26T03:34:33.281Z,84.75
2018-11-26T03:37:00.976Z,84.37
2018-11-26T03:39:28.660Z,84.33
2018-11-26T03:41:56.441Z,83.88
2018-11-26T03:44:24.114Z,84.67
2018-11-26T03:46:51.802Z,84.32
2018-11-26T03:49:23.172Z,84.22
2018-11-26T03:51:50.942Z,84.03
2018-11-26T03:54:18.662Z,84.46
2018-11-26T03:56:46.434Z,83.74
2018-11-26T03:59:14.102Z,84.19
2018-11-26T04:01:41.846Z,83.97
2018-11-26T04:04:09.494Z,84.04
2018-11-26T04:06:37.268Z,83.90
2018-11-26T04:09:07.291Z,84.65
2018-11-26T04:11:36.131Z,84.67
2018-11-26T04:14:03.950Z,85.03
2018-11-26T04:16:31.615Z,84.98
2018-11-26T04:18:59.399Z,84.76
2018-11-26T04:21:27.082Z,85.19
2018-11-26T04:23:54.763Z,85.23
2018-11-26T04:26:22.468Z,85.50
2018-11-26T04:28:50.221Z,85.32
2018-11-26T04:31:17.971Z,85.71
2018-11-26T04:33:45.622Z,85.72
2018-11-26T04:36:13.444Z,85.92
2018-11-26T04:38:41.091Z,85.80
2018-11-26T04:41:08.826Z,85.69
2018-11-26T04:43:36.477Z,85.91
2018-11-26T04:46:04.188Z,85.61
2018-11-26T04:48:31.926Z,86.46
2018-11-26T04:50:59.584Z,86.09
2018-11-26T04:53:27.349Z,86.42
2018-11-26T04:55:55.095Z,86.05
2018-11-26T04:58:22.855Z,86.68
2018-11-26T05:00:50.546Z,86.53
2018-11-26T05:03:18.239Z,86.07
2018-11-26T05:05:46.112Z,86.69
2018-11-26T05:08:13.831Z,86.33
2018-11-26T05:10:41.505Z,86.89
2018-11-26T05:13:09.202Z,86.89
2018-11-26T05:15:36.887Z,86.47
2018-11-26T05:18:05.095Z,86.87
2018-11-26T05:20:32.774Z,86.62
2018-11-26T05:23:00.493Z,86.83
2018-11-26T05:25:28.204Z,86.76
2018-11-26T05:27:55.855Z,86.73
2018-11-26T05:30:23.582Z,86.66
2018-11-26T05:32:51.276Z,86.37
2018-11-26T05:35:19.004Z,86.04
2018-11-26T05:37:50.151Z,86.39
2018-11-26T05:40:17.988Z,86.88
2018-11-26T05:42:45.718Z,86.94
2018-11-26T05:45:15.042Z,86.86
2018-11-26T05:47:42.731Z,86.62
2018-11-26T05:50:12.791Z,86.73
2018-11-26T05:52:40.764Z,87.00
2018-11-26T05:55:12.215Z,87.03
2018-11-26T05:57:40.037Z,86.92
2018-11-26T06:00:14.303Z,87.04
2018-11-26T06:02:42.062Z,86.40
2018-11-26T06:05:09.954Z,86.46
2018-11-26T06:07:37.606Z,86.62
2018-11-26T06:10:07.459Z,86.57
2018-11-26T06:12:35.115Z,86.62
2018-11-26T06:15:03.134Z,86.98
2018-11-26T06:17:30.766Z,87.01
2018-11-26T06:19:58.499Z,87.32
2018-11-26T06:22:26.156Z,87.66
2018-11-26T06:24:53.870Z,87.76
2018-11-26T06:27:21.617Z,88.04
2018-11-26T06:29:49.355Z,88.36
2018-11-26T06:32:17.042Z,87.78
2018-11-26T06:34:44.822Z,88.06
2018-11-26T06:37:12.536Z,88.56
2018-11-26T06:39:40.318Z,88.44
2018-11-26T06:42:08.010Z,88.76
2018-11-26T06:44:35.700Z,88.32
2018-11-26T06:47:03.574Z,88.88
2018-11-26T06:49:31.298Z,88.65
2018-11-26T06:51:59.030Z,88.22
2018-11-26T06:54:26.896Z,88.60
2018-11-26T06:56:54.729Z,88.56
2018-11-26T06:59:22.434Z,88.29
2018-11-26T07:01:50.098Z,88.68
2018-11-26T07:04:17.807Z,88.35
2018-11-26T07:06:45.558Z,88.38
2018-11-26T07:09:13.254Z,88.18
2018-11-26T07:11:41.033Z,87.93
2018-11-26T07:14:08.689Z,87.96
2018-11-26T07:16:37.632Z,87.98
2018-11-26T07:19:04.622Z,87.76
2018-11-26T07:21:32.302Z,87.56
2018-11-26T07:24:00.039Z,87.87
2018-11-26T07:26:27.720Z,87.58
2018-11-26T07:28:55.520Z,87.69
2018-11-26T07:31:23.510Z,87.57
2018-11-26T07:33:51.196Z,87.69
2018-11-26T07:36:18.854Z,87.08
2018-11-26T07:38:46.542Z,87.16
2018-11-26T07:41:14.317Z,87.29
2018-11-26T07:43:42.054Z,87.24
2018-11-26T07:46:09.739Z,87.03
2018-11-26T07:48:37.649Z,87.14
2018-11-26T07:51:05.748Z,86.97
2018-11-26T07:53:33.546Z,87.08
2018-11-26T07:56:01.210Z,86.82
2018-11-26T07:58:28.999Z,86.55
2018-11-26T08:00:56.825Z,86.58
2018-11-26T08:03:24.574Z,86.87
2018-11-26T08:05:52.294Z,86.58
2018-11-26T08:08:20.156Z,86.67
2018-11-26T08:10:47.886Z,86.29
2018-11-26T08:13:15.571Z,86.10
2018-11-26T08:15:43.268Z,86.22
2018-11-26T08:18:11.075Z,85.98
2018-11-26T08:20:38.821Z,86.04
2018-11-26T08:23:06.534Z,85.65
2018-11-26T08:25:34.174Z,85.80
2018-11-26T08:28:01.830Z,85.00
2018-11-26T08:30:29.691Z,85.30
2018-11-26T08:33:01.107Z,85.08
2018-11-26T08:35:29.772Z,84.33
2018-11-26T08:38:03.210Z,84.52
2018-11-26T08:40:36.435Z,84.20
2018-11-26T08:43:10.516Z,84.47
2018-11-26T08:45:44.874Z,84.36
2018-11-26T08:48:19.956Z,83.76
2018-11-26T08:50:48.944Z,84.10
2018-11-26T08:53:15.742Z,83.70
2018-11-26T08:55:43.406Z,83.92
2018-11-26T08:58:11.205Z,84.04
2018-11-26T09:00:38.926Z,83.47
2018-11-26T09:03:12.508Z,83.76
2018-11-26T09:06:11.431Z,83.35
2018-11-26T09:08:39.129Z,83.42
2018-11-26T09:11:08.971Z,83.13
2018-11-26T09:13:36.798Z,83.23
2018-11-26T09:16:04.614Z,82.91
2018-11-26T09:18:32.400Z,82.63
2018-11-26T09:21:00.099Z,82.26
2018-11-26T09:23:27.905Z,83.04
2018-11-26T09:25:55.558Z,82.93
2018-11-26T09:28:23.304Z,82.84
2018-11-26T09:30:51.054Z,82.36
2018-11-26T09:33:18.726Z,81.19
2018-11-26T09:35:46.434Z,81.21
2018-11-26T09:38:14.193Z,81.54
2018-11-26T09:40:41.935Z,80.00
2018-11-26T09:43:09.738Z,80.03
2018-11-26T09:45:40.481Z,81.06
2018-11-26T09:48:05.367Z,80.95
2018-11-26T09:50:33.143Z,79.32
2018-11-26T09:53:00.851Z,80.28
2018-11-26T09:55:28.613Z,80.21
2018-11-26T09:57:56.265Z,79.40
2018-11-26T10:00:23.951Z,79.29
2018-11-26T10:02:52.146Z,79.30
2018-11-26T10:05:22.474Z,78.94
2018-11-26T10:07:50.394Z,80.03
2018-11-26T10:10:22.003Z,79.75
2018-11-26T10:12:53.058Z,80.04
2018-11-26T10:15:34.456Z,78.94
2018-11-26T10:18:03.838Z,77.60
2018-11-26T10:20:31.698Z,79.24
2018-11-26T10:23:00.013Z,78.46
2018-11-26T10:25:27.889Z,78.23
2018-11-26T10:27:55.653Z,78.29
2018-11-26T10:30:23.849Z,78.50
2018-11-26T10:32:52.674Z,78.43
2018-11-26T10:35:20.829Z,77.32
2018-11-26T10:37:48.890Z,76.51
2018-11-26T10:40:20.450Z,76.06
2018-11-26T10:42:48.202Z,77.79
2018-11-26T10:45:17.511Z,75.43
2018-11-26T10:47:45.337Z,73.50
2018-11-26T10:50:15.583Z,75.04
2018-11-26T10:52:46.143Z,74.18
2018-11-26T10:55:18.105Z,73.72
2018-11-26T10:57:46.018Z,75.63
2018-11-26T11:00:23.058Z,74.51
2018-11-26T11:02:51.214Z,71.89
2018-11-26T11:05:19.082Z,73.07
2018-11-26T11:07:46.867Z,70.74
2018-11-26T11:10:17.717Z,72.48
2018-11-26T11:12:45.430Z,70.43
2018-11-26T11:15:13.358Z,71.85
2018-11-26T11:17:41.141Z,71.17
2018-11-26T11:20:17.560Z,71.48
2018-11-26T11:22:45.310Z,69.20
2018-11-26T11:25:16.694Z,68.65
2018-11-26T11:27:44.421Z,70.33
2018-11-26T11:30:15.523Z,71.96
2018-11-26T11:32:43.295Z,69.58
2018-11-26T11:35:12.485Z,67.95
2018-11-26T11:37:41.111Z,69.14
2018-11-26T11:40:27.863Z,68.84
2018-11-26T11:42:56.632Z,69.72
2018-11-26T11:45:25.276Z,68.59
2018-11-26T11:47:52.993Z,70.10
2018-11-26T11:50:21.339Z,68.43
2018-11-26T11:52:49.299Z,68.80
2018-11-26T11:55:20.953Z,69.15
2018-11-26T11:57:48.952Z,69.97
2018-11-26T12:00:37.246Z,67.91
2018-11-26T12:03:12.931Z,69.51
2018-11-26T12:05:40.657Z,69.12
2018-11-26T12:08:08.944Z,69.20
2018-11-26T12:10:37.163Z,68.84
2018-11-26T12:13:06.842Z,67.77
2018-11-26T12:15:36.373Z,69.19
2018-11-26T12:18:05.216Z,67.57
2018-11-26T12:20:33.144Z,66.12
2018-11-26T12:23:00.915Z,67.44
2018-11-26T12:25:29.280Z,68.35
2018-11-26T12:27:57.626Z,68.78
2018-11-26T12:30:27.818Z,67.87
2018-11-26T12:32:56.011Z,66.42
2018-11-26T12:35:23.893Z,68.17
2018-11-26T12:37:51.807Z,66.15
2018-11-26T12:40:21.521Z,67.99
2018-11-26T12:42:51.103Z,67.48
2018-11-26T12:45:22.455Z,68.16
2018-11-26T12:47:50.227Z,68.18
2018-11-26T12:50:18.124Z,69.13
2018-11-26T12:52:46.103Z,69.45
2018-11-26T12:55:17.171Z,68.62
2018-11-26T12:57:46.246Z,69.27
2018-11-26T13:00:17.725Z,69.06
2018-11-26T13:02:47.425Z,68.23
2018-11-26T13:05:16.622Z,67.55
2018-11-26T13:07:44.567Z,68.15
2018-11-26T13:10:14.844Z,67.96
2018-11-26T13:12:43.183Z,67.89
2018-11-26T13:15:14.318Z,67.42
2018-11-26T13:17:42.168Z,67.33
2018-11-26T13:20:14.438Z,67.02
2018-11-26T13:22:42.614Z,66.26
2018-11-26T13:25:12.324Z,66.98
2018-11-26T13:27:43.566Z,66.74
2018-11-26T13:30:17.055Z,65.61
2018-11-26T13:32:46.835Z,67.79
2018-11-26T13:35:15.823Z,66.68
2018-11-26T13:37:43.850Z,67.80
2018-11-26T13:40:13.160Z,66.62
2018-11-26T13:42:41.316Z,65.94
2018-11-26T13:45:13.388Z,66.31
2018-11-26T13:47:41.671Z,67.61
2018-11-26T13:50:29.956Z,67.35
2018-11-26T13:52:57.847Z,66.05
2018-11-26T13:55:25.618Z,66.88
2018-11-26T13:57:53.347Z,67.20
2018-11-26T14:00:21.423Z,68.48
2018-11-26T14:02:50.863Z,68.40
2018-11-26T14:05:20.707Z,67.38
2018-11-26T14:07:49.391Z,68.54
2018-11-26T14:10:21.399Z,68.21
2018-11-26T14:13:00.179Z,69.27
2018-11-26T14:15:27.996Z,69.21
2018-11-26T14:17:55.988Z,68.74
2018-11-26T14:20:23.760Z,68.94
2018-11-26T14:22:51.478Z,69.00
2018-11-26T14:25:19.493Z,69.03
2018-11-26T14:27:47.685Z,69.67
2018-11-26T14:30:19.509Z,69.43
2018-11-26T14:32:47.387Z,70.19
2018-11-26T14:35:15.119Z,69.87
2018-11-26T14:37:43.161Z,69.61
2018-11-26T14:40:19.051Z,68.97
2018-11-26T14:42:47.571Z,69.90
2018-11-26T14:45:15.117Z,70.22
2018-11-26T14:47:43.630Z,69.42
2018-11-26T14:50:13.088Z,70.30
2018-11-26T14:52:43.054Z,69.50
2018-11-26T14:55:13.776Z,69.84
2018-11-26T14:57:41.573Z,69.66
2018-11-26T15:00:13.944Z,69.75
2018-11-26T15:02:41.990Z,69.83
2018-11-26T15:05:10.290Z,69.51
2018-11-26T15:07:38.049Z,69.43
2018-11-26T15:10:12.322Z,69.94
2018-11-26T15:12:40.581Z,69.72
2018-11-26T15:15:24.635Z,69.87
2018-11-26T15:17:52.520Z,70.00
2018-11-26T15:20:24.001Z,70.08
2018-11-26T15:22:53.337Z,69.63
2018-11-26T15:25:26.757Z,70.53
2018-11-26T15:28:00.944Z,70.58
2018-11-26T15:30:28.645Z,70.49
2018-11-26T15:32:56.423Z,70.85
2018-11-26T15:35:24.537Z,70.59
2018-11-26T15:37:52.295Z,71.07
2018-11-26T15:40:20.987Z,71.21
2018-11-26T15:42:49.191Z,71.65
2018-11-26T15:45:22.695Z,71.49
2018-11-26T15:47:51.733Z,71.20
2018-11-26T15:50:19.569Z,71.58
2018-11-26T15:52:47.323Z,71.66
2018-11-26T15:55:17.004Z,71.27
2018-11-26T15:57:44.764Z,72.04
2018-11-26T16:00:24.080Z,71.54
2018-11-26T16:02:52.412Z,71.94
2018-11-26T16:05:27.829Z,71.90
2018-11-26T16:08:00.847Z,71.95
2018-11-26T16:10:28.653Z,72.08
2018-11-26T16:12:58.500Z,72.57
2018-11-26T16:15:33.095Z,72.03
2018-11-26T16:18:02.637Z,72.00
2018-11-26T16:20:30.519Z,72.53
2018-11-26T16:22:59.175Z,71.68
2018-11-26T16:25:26.879Z,71.67
2018-11-26T16:27:54.851Z,71.63
2018-11-26T16:30:22.600Z,71.75
2018-11-26T16:32:55.422Z,72.18
2018-11-26T16:35:25.403Z,72.07
2018-11-26T16:37:53.582Z,72.17
2018-11-26T16:40:21.398Z,72.06
2018-11-26T16:42:49.327Z,72.34
2018-11-26T16:45:27.052Z,72.45
2018-11-26T16:47:56.475Z,72.80
2018-11-26T16:50:27.091Z,72.49
2018-11-26T16:52:55.378Z,72.65
2018-11-26T16:55:23.197Z,73.13
2018-11-26T16:57:51.296Z,73.16
2018-11-26T17:00:22.712Z,72.79
2018-11-26T17:02:52.265Z,72.63
2018-11-26T17:05:26.092Z,72.80
2018-11-26T17:07:53.812Z,73.25
2018-11-26T17:10:21.797Z,72.92
2018-11-26T17:12:49.606Z,73.28
2018-11-26T17:15:17.947Z,73.25
2018-11-26T17:17:45.966Z,73.67
2018-11-26T17:20:15.059Z,73.50
2018-11-26T17:22:43.205Z,73.47
2018-11-26T17:25:13.626Z,74.12
2018-11-26T17:27:42.380Z,73.49
2018-11-26T17:30:19.644Z,73.53
2018-11-26T17:32:49.483Z,74.25
2018-11-26T17:35:17.351Z,73.78
2018-11-26T17:37:45.048Z,74.32
2018-11-26T17:40:21.977Z,73.94
2018-11-26T17:42:50.267Z,74.26
2018-11-26T17:45:18.793Z,74.14
2018-11-26T17:47:48.551Z,74.17
2018-11-26T17:50:27.077Z,74.44
2018-11-26T17:52:54.998Z,74.18
2018-11-26T17:55:22.848Z,74.04
2018-11-26T17:57:51.077Z,74.32
2018-11-26T18:00:24.989Z,73.98
2018-11-26T18:02:52.737Z,74.15
2018-11-26T18:05:25.137Z,74.41
2018-11-26T18:08:03.277Z,74.18
2018-11-26T18:10:31.020Z,74.21
2018-11-26T18:12:58.821Z,74.21
2018-11-26T18:15:26.861Z,74.27
2018-11-26T18:17:54.615Z,74.13
2018-11-26T18:20:22.499Z,73.97
2018-11-26T18:22:52.241Z,74.11
2018-11-26T18:25:21.399Z,74.48
2018-11-26T18:28:02.288Z,74.31
2018-11-26T18:30:35.615Z,74.36
2018-11-26T18:33:03.892Z,73.81
2018-11-26T18:35:31.646Z,74.02
2018-11-26T18:37:59.366Z,74.05
2018-11-26T18:40:27.044Z,74.16
2018-11-26T18:42:54.718Z,73.99
2018-11-26T18:45:23.002Z,73.80
2018-11-26T18:47:56.162Z,74.13
2018-11-26T18:50:23.967Z,73.83
2018-11-26T18:52:53.120Z,73.87
2018-11-26T18:55:21.410Z,73.50
2018-11-26T18:57:49.251Z,73.70
2018-11-26T19:00:21.014Z,73.63
2018-11-26T19:02:48.920Z,73.27
2018-11-26T19:05:17.865Z,73.25
2018-11-26T19:07:45.555Z,73.44
2018-11-26T19:10:17.003Z,73.52
2018-11-26T19:12:47.101Z,73.28
2018-11-26T19:15:48.443Z,73.74
2018-11-26T19:18:18.557Z,74.09
2018-11-26T19:20:46.231Z,73.45
2018-11-26T19:23:13.920Z,73.99
2018-11-26T19:25:43.146Z,73.84
2018-11-26T19:28:11.075Z,73.65
2018-11-26T19:30:38.763Z,74.01
2018-11-26T19:33:08.386Z,73.81
2018-11-26T19:35:36.455Z,74.31
2018-11-26T19:38:05.047Z,73.51
2018-11-26T19:40:33.049Z,73.96
2018-11-26T19:43:00.771Z,73.79
2018-11-26T19:45:29.015Z,73.69
2018-11-26T19:47:57.095Z,73.87
2018-11-26T19:50:24.811Z,73.95
2018-11-26T19:52:53.579Z,73.38
2018-11-26T19:55:23.041Z,73.25
2018-11-26T19:57:53.454Z,73.78
2018-11-26T20:00:25.699Z,72.71
2018-11-26T20:03:16.276Z,72.94
2018-11-26T20:06:02.479Z,73.41
2018-11-26T20:08:30.248Z,73.30
2018-11-26T20:10:57.983Z,73.51
2018-11-26T20:13:25.715Z,73.50
2018-11-26T20:15:53.991Z,73.22
2018-11-26T20:18:21.759Z,73.53
2018-11-26T20:20:49.579Z,73.43
2018-11-26T20:23:17.279Z,73.31
2018-11-26T20:25:46.174Z,73.46
2018-11-26T20:28:12.827Z,73.33
2018-11-26T20:30:40.577Z,73.60
2018-11-26T20:33:08.692Z,73.51
2018-11-26T20:35:36.444Z,73.44
2018-11-26T20:38:08.640Z,73.29
2018-11-26T20:40:36.448Z,73.45
2018-11-26T20:43:06.719Z,73.31
2018-11-26T20:45:34.607Z,73.50
2018-11-26T20:48:02.323Z,73.76
2018-11-26T20:50:30.090Z,73.49
2018-11-26T20:52:57.794Z,73.84
2018-11-26T20:55:25.902Z,74.06
2018-11-26T20:57:55.395Z,73.72
2018-11-26T21:00:25.128Z,73.61
2018-11-26T21:02:54.852Z,73.44
2018-11-26T21:05:22.653Z,73.80
2018-11-26T21:07:50.472Z,73.89
2018-11-26T21:10:18.827Z,73.57
2018-11-26T21:12:47.799Z,73.72
2018-11-26T21:15:17.375Z,73.22
2018-11-26T21:17:50.063Z,73.61
2018-11-26T21:20:29.174Z,73.53
2018-11-26T21:22:57.594Z,73.60
2018-11-26T21:25:25.420Z,73.58
2018-11-26T21:27:53.167Z,73.62
2018-11-26T21:30:20.925Z,73.02
2018-11-26T21:32:48.687Z,73.29
2018-11-26T21:35:18.116Z,73.44
2018-11-26T21:37:48.788Z,73.47
2018-11-26T21:40:20.772Z,72.86
2018-11-26T21:42:49.250Z,73.23
2018-11-26T21:45:20.867Z,73.64
2018-11-26T21:47:48.641Z,73.25
2018-11-26T21:50:16.431Z,73.54
2018-11-26T21:52:44.332Z,73.79
2018-11-26T21:55:15.659Z,73.66
2018-11-26T21:57:43.575Z,73.45
2018-11-26T22:00:26.975Z,73.49
2018-11-26T22:02:55.634Z,73.46
2018-11-26T22:05:23.767Z,73.60
2018-11-26T22:07:51.539Z,74.05
2018-11-26T22:10:21.921Z,73.59
2018-11-26T22:12:52.144Z,73.79
2018-11-26T22:15:20.011Z,73.76
2018-11-26T22:17:47.804Z,73.95
2018-11-26T22:20:20.398Z,74.35
2018-11-26T22:22:48.287Z,74.34
2018-11-26T22:25:16.108Z,73.89
2018-11-26T22:27:43.964Z,73.97
2018-11-26T22:30:17.279Z,74.29
2018-11-26T22:32:45.151Z,73.74
2018-11-26T22:35:12.976Z,73.90
2018-11-26T22:37:40.813Z,74.24
2018-11-26T22:40:11.729Z,73.83
2018-11-26T22:42:40.263Z,73.99
2018-11-26T22:45:13.072Z,73.65
2018-11-26T22:47:41.391Z,73.51
2018-11-26T22:50:15.536Z,73.97
2018-11-26T22:52:43.331Z,73.58
2018-11-26T22:55:12.631Z,73.54
2018-11-26T22:57:40.990Z,73.50
2018-11-26T23:00:21.629Z,73.81
2018-11-26T23:02:50.356Z,73.83
2018-11-26T23:05:18.119Z,73.68
2018-11-26T23:07:45.803Z,73.74
2018-11-26T23:10:13.543Z,73.41
2018-11-26T23:12:41.261Z,73.88
2018-11-26T23:15:12.777Z,74.10
2018-11-26T23:17:41.437Z,74.12
2018-11-26T23:20:11.979Z,74.33
2018-11-26T23:22:39.760Z,74.24
2018-11-26T23:25:09.953Z,73.83
2018-11-26T23:27:37.740Z,73.94
2018-11-26T23:30:14.888Z,74.12
2018-11-26T23:32:43.509Z,73.73
2018-11-26T23:35:11.273Z,73.93
2018-11-26T23:37:39.096Z,74.40
2018-11-26T23:40:09.264Z,74.10
2018-11-26T23:42:37.059Z,74.45
2018-11-26T23:45:08.255Z,73.88
2018-11-26T23:47:36.023Z,74.13
2018-11-26T23:50:04.420Z,74.45
2018-11-26T23:52:32.151Z,74.35
2018-11-26T23:54:59.900Z,74.47
2018-11-26T23:57:27.643Z,74.73
2018-11-26T23:59:55.454Z,75.03
